createdAt,value
2018-12-24T00:00:52.483Z,20.72
2018-12-24T00:04:14.622Z,20.739999999999995
2018-12-24T00:07:36.827Z,20.72
2018-12-24T00:10:59.015Z,20.72
2018-12-24T00:14:21.166Z,20.739999999999995
2018-12-24T00:17:43.371Z,20.72
2018-12-24T00:21:05.427Z,20.72
2018-12-24T00:24:27.690Z,20.739999999999995
2018-12-24T00:27:49.863Z,20.75
2018-12-24T00:31:12.052Z,20.739999999999995
2018-12-24T00:34:34.229Z,20.72
2018-12-24T00:37:56.310Z,20.739999999999995
2018-12-24T00:44:40.778Z,20.769999999999996
2018-12-24T00:48:02.952Z,20.78
2018-12-24T00:51:25.080Z,20.799999999999997
2018-12-24T00:58:09.354Z,20.75
2018-12-24T01:01:33.039Z,20.61
2018-12-24T01:04:53.791Z,20.489999999999995
2018-12-24T01:08:15.979Z,20.400000000000006
2018-12-24T01:15:00.306Z,20.14
2018-12-24T01:21:44.697Z,20.120000000000005
2018-12-24T01:25:06.826Z,20
2018-12-24T01:28:28.961Z,20.11
2018-12-24T01:31:51.181Z,20.060000000000002
2018-12-24T01:35:13.382Z,19.83
2018-12-24T01:38:35.538Z,19.89
2018-12-24T01:41:57.714Z,19.939999999999998
2018-12-24T01:45:19.811Z,20
2018-12-24T01:48:42.121Z,19.939999999999998
2018-12-24T01:52:04.199Z,19.870000000000005
2018-12-24T01:55:26.455Z,19.909999999999997
2018-12-24T01:58:48.526Z,19.83
2018-12-24T02:02:10.795Z,19.689999999999998
2018-12-24T02:05:32.967Z,19.689999999999998
2018-12-24T02:08:55.138Z,19.86
2018-12-24T02:19:01.678Z,19.760000000000005
2018-12-24T02:22:26.016Z,19.64
2018-12-24T02:25:45.982Z,19.650000000000006
2018-12-24T02:29:08.103Z,19.659999999999997
2018-12-24T02:32:30.332Z,19.540000000000006
2018-12-24T02:35:52.450Z,19.439999999999998
2018-12-24T02:39:14.689Z,19.58
2018-12-24T02:42:36.894Z,19.510000000000005
2018-12-24T02:45:59.038Z,19.47
2018-12-24T02:49:21.177Z,19.409999999999997
2018-12-24T02:52:43.413Z,19.58
2018-12-24T02:56:05.502Z,19.58
2018-12-24T02:59:27.768Z,19.64
2018-12-24T03:02:50.004Z,19.540000000000006
2018-12-24T03:06:12.121Z,19.560000000000002
2018-12-24T03:09:34.294Z,19.689999999999998
2018-12-24T03:19:40.804Z,19.489999999999995
2018-12-24T03:23:02.975Z,19.58
2018-12-24T03:26:25.151Z,19.58
2018-12-24T03:29:47.308Z,19.560000000000002
2018-12-24T03:33:09.528Z,19.599999999999994
2018-12-24T03:36:31.596Z,19.61
2018-12-24T03:39:53.856Z,19.620000000000005
2018-12-24T03:43:16.015Z,19.519999999999996
2018-12-24T03:46:38.138Z,19.58
2018-12-24T03:50:00.405Z,19.67
2018-12-24T03:53:22.570Z,19.769999999999996
2018-12-24T03:56:44.684Z,19.75
2018-12-24T04:00:06.833Z,19.620000000000005
2018-12-24T04:06:51.253Z,19.519999999999996
2018-12-24T04:10:13.406Z,19.61
2018-12-24T04:13:35.604Z,19.64
2018-12-24T04:20:19.842Z,19.78
2018-12-24T04:23:42.109Z,19.61
2018-12-24T04:30:26.438Z,19.620000000000005
2018-12-24T04:33:48.658Z,19.53
2018-12-24T04:37:10.806Z,19.650000000000006
2018-12-24T04:40:32.908Z,19.659999999999997
2018-12-24T04:43:55.131Z,19.72
2018-12-24T04:47:17.356Z,19.709999999999994
2018-12-24T04:50:39.417Z,19.689999999999998
2018-12-24T04:54:01.666Z,19.709999999999994
2018-12-24T05:00:46.017Z,19.760000000000005
2018-12-24T05:04:08.193Z,19.72
2018-12-24T05:07:30.275Z,19.709999999999994
2018-12-24T05:10:52.458Z,19.519999999999996
2018-12-24T05:14:14.688Z,19.409999999999997
2018-12-24T05:17:36.896Z,19.33
2018-12-24T05:20:58.973Z,19.370000000000005
2018-12-24T05:24:21.158Z,19.549999999999997
2018-12-24T05:31:05.549Z,19.5
2018-12-24T05:34:27.767Z,19.540000000000006
2018-12-24T05:37:49.906Z,19.58
2018-12-24T05:41:12.079Z,19.61
2018-12-24T05:44:34.264Z,19.620000000000005
2018-12-24T05:47:56.353Z,19.659999999999997
2018-12-24T05:51:18.585Z,19.64
2018-12-24T05:54:40.700Z,19.650000000000006
2018-12-24T05:58:02.956Z,19.599999999999994
2018-12-24T06:01:25.044Z,19.650000000000006
2018-12-24T06:04:47.389Z,19.659999999999997
2018-12-24T06:11:31.671Z,19.64
2018-12-24T06:14:53.744Z,19.64
2018-12-24T06:18:15.993Z,19.650000000000006
2018-12-24T06:21:38.154Z,19.620000000000005
2018-12-24T06:25:00.254Z,19.599999999999994
2018-12-24T06:28:22.498Z,19.58
2018-12-24T06:31:44.696Z,19.58
2018-12-24T06:35:06.858Z,19.58
2018-12-24T06:41:51.213Z,19.540000000000006
2018-12-24T06:45:13.380Z,19.519999999999996
2018-12-24T06:48:35.474Z,19.510000000000005
2018-12-24T06:51:57.655Z,19.510000000000005
2018-12-24T06:55:19.821Z,19.519999999999996
2018-12-24T06:58:41.985Z,19.489999999999995
2018-12-24T07:02:05.431Z,19.489999999999995
2018-12-24T07:12:10.703Z,19.47
2018-12-24T07:15:32.875Z,19.459999999999994
2018-12-24T07:22:17.285Z,19.47
2018-12-24T07:25:39.524Z,19.47
2018-12-24T07:29:01.563Z,19.47
2018-12-24T07:35:45.917Z,19.47
2018-12-24T07:39:08.196Z,19.47
2018-12-24T07:42:30.360Z,19.439999999999998
2018-12-24T07:49:14.679Z,19.430000000000007
2018-12-24T07:52:36.849Z,19.42
2018-12-24T07:59:21.144Z,19.370000000000005
2018-12-24T08:02:43.287Z,19.319999999999993
2018-12-24T08:06:05.534Z,19.299999999999997
2018-12-24T08:16:12.597Z,19.189999999999998
2018-12-24T08:22:56.395Z,19.299999999999997
2018-12-24T08:26:18.596Z,19.319999999999993
2018-12-24T08:33:02.840Z,19.310000000000002
2018-12-24T08:36:25.022Z,19.33
2018-12-24T08:39:47.275Z,19.430000000000007
2018-12-24T08:43:09.417Z,19.650000000000006
2018-12-24T08:46:31.538Z,19.849999999999994
2018-12-24T08:49:53.779Z,19.959999999999994
2018-12-24T08:53:15.986Z,20.019999999999996
2018-12-24T08:56:38.123Z,20.040000000000006
2018-12-24T09:00:00.258Z,20.099999999999994
2018-12-24T09:03:22.467Z,20.120000000000005
2018-12-24T09:06:44.660Z,20.159999999999997
2018-12-24T09:10:06.818Z,20.159999999999997
2018-12-24T09:13:28.998Z,20.189999999999998
2018-12-24T09:16:51.170Z,20.189999999999998
2018-12-24T09:20:13.261Z,20.17
2018-12-24T09:23:35.519Z,20.159999999999997
2018-12-24T09:26:57.678Z,20.099999999999994
2018-12-24T09:30:19.848Z,20.03
2018-12-24T09:33:42.040Z,19.989999999999995
2018-12-24T09:37:04.134Z,20
2018-12-24T09:40:26.326Z,20.060000000000002
2018-12-24T09:43:48.556Z,20.099999999999994
2018-12-24T09:47:10.738Z,20.14
2018-12-24T09:50:32.888Z,20.180000000000007
2018-12-24T09:53:55.071Z,20.189999999999998
2018-12-24T09:57:17.237Z,20.239999999999995
2018-12-24T10:00:39.488Z,20.28
2018-12-24T10:04:01.628Z,20.299999999999997
2018-12-24T10:07:23.693Z,20.319999999999993
2018-12-24T10:10:45.930Z,20.319999999999993
2018-12-24T10:14:08.128Z,20.319999999999993
2018-12-24T10:17:30.286Z,20.33
2018-12-24T10:20:52.461Z,20.349999999999994
2018-12-24T10:24:14.617Z,20.370000000000005
2018-12-24T10:27:36.727Z,20.39
2018-12-24T10:30:59.045Z,20.409999999999997
2018-12-24T10:34:21.140Z,20.430000000000007
2018-12-24T10:37:43.318Z,20.430000000000007
2018-12-24T10:41:05.495Z,20.459999999999994
2018-12-24T10:44:27.678Z,20.47
2018-12-24T10:47:49.857Z,20.489999999999995
2018-12-24T10:51:11.934Z,20.510000000000005
2018-12-24T10:54:34.195Z,20.519999999999996
2018-12-24T10:57:56.373Z,20.53
2018-12-24T11:01:18.528Z,20.540000000000006
2018-12-24T11:04:40.719Z,20.58
2018-12-24T11:08:02.874Z,20.58
2018-12-24T11:11:25.020Z,20.61
2018-12-24T11:14:47.256Z,20.64
2018-12-24T11:18:09.416Z,20.680000000000007
2018-12-24T11:21:31.591Z,20.689999999999998
2018-12-24T11:24:53.664Z,20.689999999999998
2018-12-24T11:28:15.929Z,20.72
2018-12-24T11:31:38.101Z,20.709999999999994
2018-12-24T11:35:00.193Z,20.72
2018-12-24T11:38:22.445Z,20.72
2018-12-24T11:41:44.571Z,20.78
2018-12-24T11:45:06.719Z,20.790000000000006
2018-12-24T11:48:28.896Z,20.799999999999997
2018-12-24T11:51:51.140Z,20.790000000000006
2018-12-24T11:55:13.345Z,20.769999999999996
2018-12-24T11:58:35.486Z,20.78
2018-12-24T12:01:57.760Z,20.799999999999997
2018-12-24T12:05:19.838Z,20.78
2018-12-24T12:08:41.922Z,20.78
2018-12-24T12:12:04.200Z,20.790000000000006
2018-12-24T12:15:26.275Z,20.799999999999997
2018-12-24T12:18:48.532Z,20.799999999999997
2018-12-24T12:22:10.624Z,20.819999999999993
2018-12-24T12:25:32.800Z,20.83
2018-12-24T12:28:55.046Z,20.83
2018-12-24T12:32:17.331Z,20.83
2018-12-24T12:35:39.424Z,20.819999999999993
2018-12-24T12:39:01.575Z,20.819999999999993
2018-12-24T12:42:23.743Z,20.810000000000002
2018-12-24T12:45:45.856Z,20.819999999999993
2018-12-24T12:49:08.087Z,20.870000000000005
2018-12-24T12:52:30.265Z,20.86
2018-12-24T12:55:52.508Z,20.83
2018-12-24T12:59:14.604Z,20.819999999999993
2018-12-24T13:02:36.701Z,20.83
2018-12-24T13:05:59.000Z,20.83
2018-12-24T13:09:21.126Z,20.83
2018-12-24T13:12:43.235Z,20.83
2018-12-24T13:16:05.490Z,20.83
2018-12-24T13:19:27.616Z,20.83
2018-12-24T13:22:49.751Z,20.83
2018-12-24T13:26:11.928Z,20.849999999999994
2018-12-24T13:29:34.198Z,20.86
2018-12-24T13:32:56.297Z,20.849999999999994
2018-12-24T13:36:18.528Z,20.849999999999994
2018-12-24T13:39:40.690Z,20.86
2018-12-24T13:43:02.791Z,20.86
2018-12-24T13:46:24.981Z,20.86
2018-12-24T13:49:47.227Z,20.870000000000005
2018-12-24T13:53:09.324Z,20.89
2018-12-24T13:56:31.583Z,20.870000000000005
2018-12-24T13:59:53.759Z,20.909999999999997
2018-12-24T14:03:15.848Z,20.900000000000006
2018-12-24T14:06:38.102Z,20.909999999999997
2018-12-24T14:10:00.269Z,20.900000000000006
2018-12-24T14:13:22.522Z,20.900000000000006
2018-12-24T14:16:44.648Z,20.930000000000007
2018-12-24T14:20:06.813Z,20.909999999999997
2018-12-24T14:23:28.985Z,20.92
2018-12-24T14:26:51.068Z,20.909999999999997
2018-12-24T14:30:13.248Z,20.939999999999998
2018-12-24T14:33:35.506Z,20.939999999999998
2018-12-24T14:36:57.683Z,20.930000000000007
2018-12-24T14:40:21.607Z,20.939999999999998
2018-12-24T14:43:42.023Z,20.930000000000007
2018-12-24T14:47:04.212Z,20.939999999999998
2018-12-24T14:50:26.377Z,20.939999999999998
2018-12-24T14:53:48.572Z,20.939999999999998
2018-12-24T14:57:10.720Z,20.930000000000007
2018-12-24T15:00:35.061Z,20.930000000000007
2018-12-24T15:03:55.071Z,20.930000000000007
2018-12-24T15:07:17.246Z,20.930000000000007
2018-12-24T15:10:39.421Z,20.939999999999998
2018-12-24T15:14:01.601Z,20.939999999999998
2018-12-24T15:17:23.774Z,20.97
2018-12-24T15:20:45.935Z,20.989999999999995
2018-12-24T15:24:08.140Z,21.010000000000005
2018-12-24T15:27:30.291Z,21.019999999999996
2018-12-24T15:30:52.689Z,21.019999999999996
2018-12-24T15:34:14.659Z,21.03
2018-12-24T15:37:36.811Z,21.019999999999996
2018-12-24T15:40:59.025Z,21.019999999999996
2018-12-24T15:44:21.272Z,21.019999999999996
2018-12-24T15:47:43.339Z,21.019999999999996
2018-12-24T15:51:05.527Z,21.019999999999996
2018-12-24T15:54:27.725Z,21.019999999999996
2018-12-24T15:57:49.865Z,21.019999999999996
2018-12-24T16:01:12.068Z,21.010000000000005
2018-12-24T16:04:34.243Z,21.010000000000005
2018-12-24T16:07:56.396Z,21.019999999999996
2018-12-24T16:11:18.567Z,21.010000000000005
2018-12-24T16:14:40.767Z,21.010000000000005
2018-12-24T16:18:02.940Z,21.010000000000005
2018-12-24T16:21:25.020Z,21.010000000000005
2018-12-24T16:24:47.258Z,21.019999999999996
2018-12-24T16:28:09.358Z,21.019999999999996
2018-12-24T16:31:32.752Z,21.010000000000005
2018-12-24T16:34:53.847Z,21.010000000000005
2018-12-24T16:38:15.888Z,21.010000000000005
2018-12-24T16:41:38.162Z,21.019999999999996
2018-12-24T16:45:00.309Z,21.019999999999996
2018-12-24T16:48:22.534Z,21.010000000000005
2018-12-24T16:51:44.686Z,21.019999999999996
2018-12-24T16:55:06.760Z,21.019999999999996
2018-12-24T16:58:28.936Z,21.03
2018-12-24T17:01:51.119Z,21.040000000000006
2018-12-24T17:05:13.291Z,21.03
2018-12-24T17:08:35.545Z,21.03
2018-12-24T17:11:57.710Z,21.03
2018-12-24T17:15:19.900Z,21.019999999999996
2018-12-24T17:18:42.052Z,21.010000000000005
2018-12-24T17:22:04.245Z,21.010000000000005
2018-12-24T17:25:26.333Z,21.019999999999996
2018-12-24T17:28:48.589Z,21.019999999999996
2018-12-24T17:32:10.813Z,21.03
2018-12-24T17:35:32.864Z,21.040000000000006
2018-12-24T17:38:55.102Z,21.040000000000006
2018-12-24T17:42:17.282Z,21.049999999999997
2018-12-24T17:45:39.386Z,21.040000000000006
2018-12-24T17:49:01.641Z,21.040000000000006
2018-12-24T17:52:23.730Z,21.03
2018-12-24T17:55:45.911Z,21.049999999999997
2018-12-24T17:59:08.090Z,21.03
2018-12-24T18:02:30.328Z,21.03
2018-12-24T18:05:52.508Z,21.040000000000006
2018-12-24T18:09:14.784Z,21.03
2018-12-24T18:12:36.872Z,21.019999999999996
2018-12-24T18:15:59.042Z,21.03
2018-12-24T18:19:21.270Z,21.049999999999997
2018-12-24T18:22:43.381Z,21.040000000000006
2018-12-24T18:26:05.572Z,21.03
2018-12-24T18:29:27.691Z,21.03
2018-12-24T18:32:49.909Z,21.03
2018-12-24T18:36:12.133Z,21.019999999999996
2018-12-24T18:39:34.277Z,21.03
2018-12-24T18:42:56.370Z,21.019999999999996
2018-12-24T18:46:18.622Z,21.040000000000006
2018-12-24T18:49:40.939Z,21.03
2018-12-24T18:53:02.961Z,21.040000000000006
2018-12-24T18:56:25.171Z,21.049999999999997
2018-12-24T18:59:47.352Z,21.040000000000006
2018-12-24T19:03:09.487Z,21.03
2018-12-24T19:06:31.587Z,21.03
2018-12-24T19:09:53.783Z,21.019999999999996
2018-12-24T19:13:16.010Z,21.019999999999996
2018-12-24T19:16:38.196Z,21.019999999999996
2018-12-24T19:20:00.361Z,21.019999999999996
2018-12-24T19:23:22.560Z,21.019999999999996
2018-12-24T19:26:44.669Z,21.019999999999996
2018-12-24T19:30:06.861Z,21.019999999999996
2018-12-24T19:33:29.084Z,21.010000000000005
2018-12-24T19:36:51.255Z,21.010000000000005
2018-12-24T19:40:13.414Z,21.019999999999996
2018-12-24T19:43:35.608Z,21.019999999999996
2018-12-24T19:46:57.780Z,21.010000000000005
2018-12-24T19:50:19.948Z,21.019999999999996
2018-12-24T19:53:42.115Z,21.019999999999996
2018-12-24T19:57:04.320Z,21.019999999999996
2018-12-24T20:00:26.479Z,21.010000000000005
2018-12-24T20:03:48.669Z,21.019999999999996
2018-12-24T20:07:10.750Z,21.03
2018-12-24T20:10:32.931Z,21.040000000000006
2018-12-24T20:13:55.107Z,21.060000000000002
2018-12-24T20:17:17.365Z,21.069999999999993
2018-12-24T20:20:39.534Z,21.060000000000002
2018-12-24T20:24:01.627Z,21.060000000000002
2018-12-24T20:27:23.872Z,21.069999999999993
2018-12-24T20:30:45.983Z,21.08
2018-12-24T20:34:08.174Z,21.069999999999993
2018-12-24T20:37:30.336Z,21.069999999999993
2018-12-24T20:40:52.504Z,21.060000000000002
2018-12-24T20:44:14.768Z,21.049999999999997
2018-12-24T20:47:36.935Z,21.049999999999997
2018-12-24T20:50:59.168Z,21.040000000000006
2018-12-24T20:54:21.289Z,21.03
2018-12-24T20:57:43.399Z,21.03
2018-12-24T21:01:05.567Z,21.03
2018-12-24T21:04:27.799Z,21
2018-12-24T21:07:49.912Z,20.97
2018-12-24T21:11:12.145Z,20.97
2018-12-24T21:14:34.342Z,20.97
2018-12-24T21:17:56.521Z,21.03
2018-12-24T21:21:18.670Z,21.019999999999996
2018-12-24T21:24:40.867Z,20.739999999999995
2018-12-24T21:28:03.056Z,20.459999999999994
2018-12-24T21:31:25.214Z,20.22
2018-12-24T21:34:47.393Z,20.370000000000005
2018-12-24T21:38:09.578Z,20.489999999999995
2018-12-24T21:41:31.750Z,20.58
2018-12-24T21:44:53.824Z,20.64
2018-12-24T21:48:16.107Z,20.689999999999998
2018-12-24T21:51:38.247Z,20.689999999999998
2018-12-24T21:55:00.489Z,20.72
2018-12-24T21:58:22.619Z,20.709999999999994
2018-12-24T22:01:44.705Z,20.349999999999994
2018-12-24T22:05:06.874Z,20.39
2018-12-24T22:08:29.165Z,20.409999999999997
2018-12-24T22:11:51.242Z,20.439999999999998
2018-12-24T22:15:13.468Z,20.430000000000007
2018-12-24T22:21:57.849Z,20.47
2018-12-24T22:25:20.062Z,20.489999999999995
2018-12-24T22:28:42.189Z,20.510000000000005
2018-12-24T22:32:04.358Z,20.510000000000005
2018-12-24T22:35:26.477Z,20.489999999999995
2018-12-24T22:42:10.798Z,20.459999999999994
2018-12-24T22:45:33.043Z,20.439999999999998
2018-12-24T22:48:55.164Z,20.430000000000007
2018-12-24T22:52:17.423Z,20.430000000000007
2018-12-24T22:55:39.569Z,20.409999999999997
2018-12-24T22:59:01.760Z,20.409999999999997
2018-12-24T23:02:26.011Z,20.409999999999997
2018-12-24T23:05:46.010Z,20.39
2018-12-24T23:09:08.205Z,20.39
2018-12-24T23:12:30.431Z,20.370000000000005
2018-12-24T23:15:52.650Z,20.39
2018-12-24T23:19:14.796Z,20.370000000000005
2018-12-24T23:22:36.868Z,20.370000000000005
2018-12-24T23:25:59.056Z,20.370000000000005
2018-12-24T23:29:21.305Z,20.36
2018-12-24T23:32:43.460Z,20.370000000000005
2018-12-24T23:36:05.653Z,20.33
2018-12-24T23:39:27.834Z,20.33
2018-12-24T23:42:50.092Z,20.349999999999994
2018-12-24T23:46:12.200Z,20.33
2018-12-24T23:49:34.504Z,20.319999999999993
2018-12-24T23:52:56.501Z,20.319999999999993
2018-12-24T23:56:18.690Z,20.310000000000002
2018-12-24T23:59:40.788Z,20.310000000000002
